Time;durP1;ratioP1;P1;durP2;ratioP2;P2;SDS_P1;SDS_P2;PMS_P1;PMS_P2;Temp;Humidity;BMP_temperature;BMP_pressure;BME280_temperature;BME280_humidity;BME280_pressure;Samples;Min_cycle;Max_cycle;Signal;HPM_P1;HPM_P2
2021/12/30 00:01:29;;;;;;;0.40;0.40;;;;;;;-142.18;100.00;-13812.19;5029990;28;20058;-74
2021/12/30 00:03:56;;;;;;;2.00;1.50;;;;;;;-142.18;100.00;-13812.19;5013498;28;20068;-74
2021/12/30 00:06:24;;;;;;;1.73;1.65;;;;;;;-142.18;100.00;-13812.19;5012466;28;20066;-74
2021/12/30 00:08:53;;;;;;;2.45;0.85;;;;;;;-142.18;100.00;-13812.19;5010477;28;20249;-74
2021/12/30 00:11:21;;;;;;;1.17;0.85;;;;;;;-142.18;100.00;-13812.19;4992529;28;20068;-74
2021/12/30 00:13:49;;;;;;;0.40;0.40;;;;;;;-142.18;100.00;-13812.19;4991975;28;20200;-74
2021/12/30 00:16:17;;;;;;;0.20;0.20;;;;;;;-142.18;100.00;-13812.19;5010767;28;20062;-74
2021/12/30 00:18:45;;;;;;;1.55;1.45;;;;;;;-142.18;100.00;-13812.19;5010577;28;20402;-74
2021/12/30 00:21:12;;;;;;;0.20;0.20;;;;;;;-142.18;100.00;-13812.19;5009919;28;20060;-74
2021/12/30 00:23:39;;;;;;;0.32;0.32;;;;;;;-142.18;100.00;-13812.19;5008465;28;20058;-74
2021/12/30 00:26:06;;;;;;;6.60;2.60;;;;;;;-142.18;100.00;-13812.19;5009115;28;20098;-74
2021/12/30 00:28:33;;;;;;;1.33;1.27;;;;;;;-142.18;100.00;-13812.19;5009470;28;20844;-74
2021/12/30 00:31:01;;;;;;;1.15;1.15;;;;;;;-142.18;100.00;-13812.19;4992734;28;20105;-75
2021/12/30 00:33:28;;;;;;;4.28;2.58;;;;;;;-142.18;100.00;-13812.19;5018692;28;20155;-74
2021/12/30 00:35:55;;;;;;;1.08;1.08;;;;;;;-142.18;100.00;-13812.19;5010969;28;20513;-74
2021/12/30 00:38:22;;;;;;;0.88;0.88;;;;;;;-142.18;100.00;-13812.19;4994182;28;20716;-74
2021/12/30 00:40:50;;;;;;;0.40;0.40;;;;;;;-142.18;100.00;-13812.19;5010681;28;20054;-74
2021/12/30 00:43:17;;;;;;;0.95;0.52;;;;;;;-142.18;100.00;-13812.19;4994490;28;20145;-74
2021/12/30 00:45:44;;;;;;;0.55;0.55;;;;;;;-142.18;100.00;-13812.19;4994741;28;20058;-74
2021/12/30 00:48:11;;;;;;;0.90;0.90;;;;;;;-142.18;100.00;-13812.19;4994171;28;20066;-74
2021/12/30 00:50:39;;;;;;;0.65;0.50;;;;;;;-142.18;100.00;-13812.19;4993155;28;20062;-74
2021/12/30 00:53:08;;;;;;;0.20;0.20;;;;;;;-142.18;100.00;-13812.19;4993311;28;20144;-75
2021/12/30 00:55:35;;;;;;;0.30;0.30;;;;;;;-142.18;100.00;-13812.19;5010566;28;20065;-74
2021/12/30 00:58:03;;;;;;;0.30;0.30;;;;;;;-142.18;100.00;-13812.19;4992838;28;20108;-74
2021/12/30 01:00:32;;;;;;;0.85;0.85;;;;;;;-142.18;100.00;-13812.19;5010823;28;20470;-74
2021/12/30 01:02:59;;;;;;;0.73;0.73;;;;;;;-142.18;100.00;-13812.19;5009737;28;20146;-74
2021/12/30 01:05:26;;;;;;;1.25;1.15;;;;;;;-142.18;100.00;-13812.19;4992754;28;20084;-74
2021/12/30 01:07:53;;;;;;;0.65;0.65;;;;;;;-142.18;100.00;-13812.19;5027101;28;20060;-74
2021/12/30 01:10:23;;;;;;;0.20;0.20;;;;;;;-142.18;100.00;-13812.19;5009875;28;20089;-74
2021/12/30 01:12:54;;;;;;;0.65;0.65;;;;;;;-142.18;100.00;-13812.19;4992490;28;20058;-74
2021/12/30 01:15:33;;;;;;;0.28;0.28;;;;;;;-142.18;100.00;-13812.19;5009734;28;20061;-74
2021/12/30 01:18:28;;;;;;;0.20;0.20;;;;;;;-142.18;100.00;-13812.19;5009383;28;20063;-74
2021/12/30 01:20:56;;;;;;;2.28;1.23;;;;;;;-142.18;100.00;-13812.19;5011037;28;20058;-74
2021/12/30 01:23:24;;;;;;;2.28;1.67;;;;;;;-142.18;100.00;-13812.19;5010776;28;20367;-74
2021/12/30 01:25:51;;;;;;;0.50;0.50;;;;;;;-142.18;100.00;-13812.19;4993934;28;20141;-75
2021/12/30 01:28:18;;;;;;;3.05;0.82;;;;;;;-142.18;100.00;-13812.19;5011506;28;20072;-74
2021/12/30 01:30:46;;;;;;;0.60;0.60;;;;;;;-142.18;100.00;-13812.19;5011457;28;20062;-74
2021/12/30 01:33:12;;;;;;;0.77;0.77;;;;;;;-142.18;100.00;-13812.19;4994882;28;20145;-74
2021/12/30 01:35:39;;;;;;;12.10;1.42;;;;;;;-142.18;100.00;-13812.19;5012016;28;20069;-74
2021/12/30 01:38:11;;;;;;;0.20;0.20;;;;;;;-142.18;100.00;-13812.19;5011228;28;20145;-74
2021/12/30 01:40:41;;;;;;;0.50;0.50;;;;;;;-142.18;100.00;-13812.19;5018999;28;20354;-74
2021/12/30 01:43:09;;;;;;;1.67;1.58;;;;;;;-142.18;100.00;-13812.19;4993296;28;20744;-74
2021/12/30 01:45:37;;;;;;;0.20;0.20;;;;;;;-142.18;100.00;-13812.19;4993271;28;20063;-74
2021/12/30 01:48:05;;;;;;;0.20;0.20;;;;;;;-142.18;100.00;-13812.19;5010564;28;20062;-74
2021/12/30 01:50:32;;;;;;;0.40;0.40;;;;;;;-142.18;100.00;-13812.19;5011978;28;20753;-74
2021/12/30 01:53:00;;;;;;;1.00;0.82;;;;;;;-142.18;100.00;-13812.19;5010984;28;20064;-73
2021/12/30 01:55:27;;;;;;;0.75;0.75;;;;;;;-142.18;100.00;-13812.19;5010808;28;20054;-74
2021/12/30 01:57:53;;;;;;;1.08;1.05;;;;;;;-142.18;100.00;-13812.19;5010274;28;20117;-73
2021/12/30 02:00:23;;;;;;;3.40;3.20;;;;;;;-142.18;100.00;-13812.19;5012920;28;20058;-74
2021/12/30 02:02:51;;;;;;;5.88;2.40;;;;;;;-142.18;100.00;-13812.19;5030295;28;20062;-74
2021/12/30 02:05:19;;;;;;;1.05;1.05;;;;;;;-142.18;100.00;-13812.19;5029934;28;20460;-74
2021/12/30 02:07:47;;;;;;;0.30;0.30;;;;;;;-142.18;100.00;-13812.19;5030738;28;20068;-74
2021/12/30 02:10:14;;;;;;;0.40;0.40;;;;;;;-142.18;100.00;-13812.19;5030427;28;20073;-74
2021/12/30 02:12:43;;;;;;;0.68;0.68;;;;;;;-142.18;100.00;-13812.19;5030754;28;20395;-74
2021/12/30 02:15:11;;;;;;;2.20;1.95;;;;;;;-142.18;100.00;-13812.19;5030891;28;20062;-74
2021/12/30 02:17:39;;;;;;;0.20;0.20;;;;;;;-142.18;100.00;-13812.19;5024347;28;20154;-74
2021/12/30 02:20:10;;;;;;;0.57;0.57;;;;;;;-142.18;100.00;-13812.19;5001216;28;20190;-74
2021/12/30 02:22:37;;;;;;;0.32;0.32;;;;;;;-142.18;100.00;-13812.19;5030456;28;20062;-74
2021/12/30 02:25:05;;;;;;;0.20;0.20;;;;;;;-142.18;100.00;-13812.19;5029386;28;20053;-74
2021/12/30 02:27:32;;;;;;;1.25;0.57;;;;;;;-142.18;100.00;-13812.19;5012345;28;20054;-74
2021/12/30 02:29:59;;;;;;;0.50;0.50;;;;;;;-142.18;100.00;-13812.19;5029501;28;20198;-74
2021/12/30 02:32:25;;;;;;;0.75;0.43;;;;;;;-142.18;100.00;-13812.19;5012363;28;20069;-74
2021/12/30 02:34:52;;;;;;;2.17;1.00;;;;;;;-142.18;100.00;-13812.19;5029728;28;20058;-75
2021/12/30 02:37:20;;;;;;;0.32;0.32;;;;;;;-142.18;100.00;-13812.19;5030835;28;20347;-74
2021/12/30 02:39:53;;;;;;;0.73;0.70;;;;;;;-142.18;100.00;-13812.19;5015897;28;20062;-74
2021/12/30 02:42:23;;;;;;;;;;;;;;;-142.18;100.00;-13812.19;5014919;28;20730;-74
2021/12/30 02:44:50;;;;;;;0.47;0.47;;;;;;;-142.18;100.00;-13812.19;5033371;28;19948;-74
2021/12/30 02:47:18;;;;;;;7.25;1.00;;;;;;;-142.18;100.00;-13812.19;5032620;28;20072;-74
2021/12/30 02:49:45;;;;;;;0.30;0.30;;;;;;;-142.18;100.00;-13812.19;5033349;28;20072;-74
2021/12/30 02:52:11;;;;;;;0.40;0.40;;;;;;;-142.18;100.00;-13812.19;5016193;28;20072;-74
2021/12/30 02:54:41;;;;;;;1.25;1.08;;;;;;;-142.18;100.00;-13812.19;5033808;28;20149;-74
2021/12/30 02:57:08;;;;;;;2.40;2.20;;;;;;;-142.18;100.00;-13812.19;5034020;28;20058;-75
2021/12/30 02:59:36;;;;;;;0.82;0.82;;;;;;;-142.18;100.00;-13812.19;5032649;28;20144;-74
2021/12/30 03:02:04;;;;;;;1.00;1.00;;;;;;;-142.18;100.00;-13812.19;5015778;28;20068;-74
2021/12/30 03:04:31;;;;;;;1.08;0.85;;;;;;;-142.18;100.00;-13812.19;5014926;28;20086;-74
2021/12/30 03:06:59;;;;;;;1.73;1.63;;;;;;;-142.18;100.00;-13812.19;5016229;28;20062;-74
2021/12/30 03:09:26;;;;;;;0.63;0.63;;;;;;;-142.18;100.00;-13812.19;5033770;28;20146;-75
2021/12/30 03:11:55;;;;;;;0.63;0.63;;;;;;;-142.18;100.00;-13812.19;5033260;28;20478;-74
2021/12/30 03:14:24;;;;;;;0.60;0.60;;;;;;;-142.18;100.00;-13812.19;5032845;28;20132;-74
2021/12/30 03:16:52;;;;;;;1.55;0.85;;;;;;;-142.18;100.00;-13812.19;5032718;28;20539;-74
2021/12/30 03:19:19;;;;;;;0.68;0.68;;;;;;;-142.18;100.00;-13812.19;5033214;28;20092;-74
2021/12/30 03:21:46;;;;;;;0.30;0.30;;;;;;;-142.18;100.00;-13812.19;5033562;28;20069;-74
2021/12/30 03:24:14;;;;;;;0.30;0.30;;;;;;;-142.18;100.00;-13812.19;5015708;28;20076;-74
2021/12/30 03:26:50;;;;;;;3.53;3.42;;;;;;;-142.18;100.00;-13812.19;5032368;28;20065;-74
2021/12/30 03:29:16;;;;;;;1.58;1.55;;;;;;;-142.18;100.00;-13812.19;5034969;28;20109;-75
2021/12/30 03:31:44;;;;;;;1.20;0.93;;;;;;;-142.18;100.00;-13812.19;5034366;28;20194;-74
2021/12/30 03:34:10;;;;;;;1.30;1.20;;;;;;;-142.18;100.00;-13812.19;5015459;28;20507;-74
2021/12/30 03:36:37;;;;;;;0.75;0.75;;;;;;;-142.18;100.00;-13812.19;5032992;28;20454;-74
2021/12/30 03:39:05;;;;;;;0.73;0.40;;;;;;;-142.18;100.00;-13812.19;5032405;28;20058;-74
2021/12/30 03:41:32;;;;;;;0.63;0.63;;;;;;;-142.18;100.00;-13812.19;5032032;28;20061;-74
2021/12/30 03:44:01;;;;;;;0.30;0.30;;;;;;;-142.18;100.00;-13812.19;5032759;28;20459;-74
2021/12/30 03:46:29;;;;;;;0.60;0.60;;;;;;;-142.18;100.00;-13812.19;5015689;28;20245;-75
2021/12/30 03:48:58;;;;;;;0.52;0.52;;;;;;;-142.18;100.00;-13812.19;5032162;28;20100;-75
2021/12/30 03:51:25;;;;;;;4.60;1.77;;;;;;;-142.18;100.00;-13812.19;5015560;28;20490;-74
2021/12/30 03:53:54;;;;;;;0.65;0.65;;;;;;;-142.18;100.00;-13812.19;5033034;28;20064;-74
2021/12/30 03:56:25;;;;;;;0.45;0.45;;;;;;;-142.18;100.00;-13812.19;5015458;28;20389;-75
2021/12/30 03:58:52;;;;;;;2.08;1.15;;;;;;;-142.18;100.00;-13812.19;5032288;28;20062;-73
2021/12/30 04:01:21;;;;;;;0.52;0.52;;;;;;;-142.18;100.00;-13812.19;5032247;28;20418;-74
2021/12/30 04:03:50;;;;;;;3.63;2.53;;;;;;;-142.18;100.00;-13812.19;5031804;28;20500;-74
2021/12/30 04:06:18;;;;;;;0.60;0.60;;;;;;;-142.18;100.00;-13812.19;5032172;28;20058;-74
2021/12/30 04:08:46;;;;;;;0.60;0.60;;;;;;;-142.18;100.00;-13812.19;5032565;28;20061;-74
2021/12/30 04:11:12;;;;;;;0.20;0.20;;;;;;;-142.18;100.00;-13812.19;5032844;28;20057;-74
2021/12/30 04:13:39;;;;;;;3.10;0.82;;;;;;;-142.18;100.00;-13812.19;5031615;28;20062;-74
2021/12/30 04:16:06;;;;;;;0.30;0.30;;;;;;;-142.18;100.00;-13812.19;5031684;28;20085;-74
2021/12/30 04:18:33;;;;;;;0.20;0.20;;;;;;;-142.18;100.00;-13812.19;5031747;28;20061;-74
2021/12/30 04:21:01;;;;;;;0.30;0.30;;;;;;;-142.18;100.00;-13812.19;5032196;28;20057;-74
2021/12/30 04:23:29;;;;;;;0.20;0.20;;;;;;;-142.18;100.00;-13812.19;5032529;28;20053;-75
2021/12/30 04:25:56;;;;;;;0.30;0.30;;;;;;;-142.18;100.00;-13812.19;5031426;28;20057;-74
2021/12/30 04:28:23;;;;;;;0.82;0.82;;;;;;;-142.18;100.00;-13812.19;5031314;28;20123;-74
2021/12/30 04:30:50;;;;;;;0.40;0.40;;;;;;;-142.18;100.00;-13812.19;5032347;28;20066;-73
2021/12/30 04:33:17;;;;;;;0.68;0.45;;;;;;;-142.18;100.00;-13812.19;5031762;28;20068;-74
2021/12/30 04:35:44;;;;;;;0.20;0.20;;;;;;;-142.18;100.00;-13812.19;5035021;28;20957;-74
2021/12/30 04:38:11;;;;;;;0.75;0.75;;;;;;;-142.18;100.00;-13812.19;5023840;28;20134;-74
2021/12/30 04:40:38;;;;;;;0.30;0.30;;;;;;;-142.18;100.00;-13812.19;5012038;28;20073;-74
2021/12/30 04:43:05;;;;;;;0.55;0.55;;;;;;;-142.18;100.00;-13812.19;5011874;28;20058;-74
2021/12/30 04:45:33;;;;;;;0.40;0.40;;;;;;;-142.18;100.00;-13812.19;5011685;28;20090;-75
2021/12/30 04:48:00;;;;;;;0.30;0.30;;;;;;;-142.18;100.00;-13812.19;4994348;28;20143;-74
2021/12/30 04:50:27;;;;;;;0.20;0.20;;;;;;;-142.18;100.00;-13812.19;5011651;28;20068;-74
2021/12/30 04:52:53;;;;;;;0.20;0.20;;;;;;;-142.18;100.00;-13812.19;5010795;28;20066;-74
2021/12/30 04:55:20;;;;;;;0.20;0.20;;;;;;;-142.18;100.00;-13812.19;5012435;28;20065;-74
2021/12/30 04:57:47;;;;;;;0.20;0.20;;;;;;;-142.18;100.00;-13812.19;5011401;28;20062;-73
2021/12/30 05:00:15;;;;;;;0.65;0.65;;;;;;;-142.18;100.00;-13812.19;5010878;28;20073;-74
2021/12/30 05:03:24;;;;;;;0.35;0.35;;;;;;;-142.18;100.00;-13812.19;5011256;28;20775;-74
2021/12/30 05:05:33;;;;;;;0.93;0.93;;;;;;;-142.18;100.00;-13812.19;5012637;28;20058;-74
2021/12/30 05:07:59;;;;;;;0.38;0.38;;;;;;;-142.18;100.00;-13812.19;5011103;28;20593;-73
2021/12/30 05:10:26;;;;;;;0.47;0.38;;;;;;;-142.18;100.00;-13812.19;4993835;28;20158;-74
2021/12/30 05:12:53;;;;;;;0.43;0.43;;;;;;;-142.18;100.00;-13812.19;5010461;28;20058;-74
2021/12/30 05:15:19;;;;;;;0.22;0.22;;;;;;;-142.18;100.00;-13812.19;5011780;28;20063;-74
2021/12/30 05:17:47;;;;;;;0.28;0.28;;;;;;;-142.18;100.00;-13812.19;5010952;28;20062;-74
2021/12/30 05:20:14;;;;;;;3.45;2.00;;;;;;;-142.18;100.00;-13812.19;5011152;28;20073;-74
2021/12/30 05:22:42;;;;;;;0.35;0.35;;;;;;;-142.18;100.00;-13812.19;5011092;28;20062;-74
2021/12/30 05:25:10;;;;;;;0.40;0.40;;;;;;;-142.18;100.00;-13812.19;5011358;28;20467;-73
2021/12/30 05:27:37;;;;;;;1.08;1.00;;;;;;;-142.18;100.00;-13812.19;4993720;28;20054;-74
2021/12/30 05:30:06;;;;;;;0.60;0.60;;;;;;;-142.18;100.00;-13812.19;5011270;28;20065;-74
2021/12/30 05:32:34;;;;;;;0.40;0.40;;;;;;;-142.18;100.00;-13812.19;5009938;28;20716;-74
2021/12/30 05:35:05;;;;;;;0.40;0.40;;;;;;;-142.18;100.00;-13812.19;5010563;28;20489;-73
2021/12/30 05:37:32;;;;;;;0.20;0.20;;;;;;;-142.18;100.00;-13812.19;5008650;28;20054;-74
2021/12/30 05:39:59;;;;;;;1.20;1.20;;;;;;;-142.18;100.00;-13812.19;5009973;28;20112;-74
2021/12/30 05:42:26;;;;;;;3.25;1.52;;;;;;;-142.18;100.00;-13812.19;4993190;28;20053;-74
2021/12/30 05:44:54;;;;;;;0.32;0.32;;;;;;;-142.18;100.00;-13812.19;5010646;28;20150;-74
2021/12/30 05:47:21;;;;;;;0.28;0.28;;;;;;;-142.18;100.00;-13812.19;5010757;28;20404;-74
2021/12/30 05:49:48;;;;;;;1.17;1.10;;;;;;;-142.18;100.00;-13812.19;5011153;28;20076;-74
2021/12/30 05:52:16;;;;;;;1.48;0.47;;;;;;;-142.18;100.00;-13812.19;5012367;28;20149;-74
2021/12/30 05:54:43;;;;;;;1.65;0.60;;;;;;;-142.18;100.00;-13812.19;5011041;28;20058;-74
2021/12/30 05:57:11;;;;;;;0.70;0.70;;;;;;;-142.18;100.00;-13812.19;5010411;28;20050;-74
2021/12/30 05:59:38;;;;;;;0.40;0.40;;;;;;;-142.18;100.00;-13812.19;4993194;28;20211;-73
2021/12/30 06:02:05;;;;;;;1.75;0.47;;;;;;;-142.18;100.00;-13812.19;5010477;28;20153;-73
2021/12/30 06:04:32;;;;;;;0.47;0.47;;;;;;;-142.18;100.00;-13812.19;5010479;28;20073;-74
2021/12/30 06:06:59;;;;;;;0.20;0.20;;;;;;;-142.18;100.00;-13812.19;5010978;28;20058;-73
2021/12/30 06:09:27;;;;;;;0.20;0.20;;;;;;;-142.18;100.00;-13812.19;5009666;28;20061;-74
2021/12/30 06:11:54;;;;;;;0.20;0.20;;;;;;;-142.18;100.00;-13812.19;4991879;28;20058;-73
2021/12/30 06:14:21;;;;;;;0.95;0.90;;;;;;;-142.18;100.00;-13812.19;5010215;28;20467;-74
2021/12/30 06:16:48;;;;;;;0.25;0.25;;;;;;;-142.18;100.00;-13812.19;5010414;28;20440;-74
2021/12/30 06:19:18;;;;;;;3.20;0.65;;;;;;;-142.18;100.00;-13812.19;4992427;28;20409;-73
2021/12/30 06:21:46;;;;;;;4.00;0.98;;;;;;;-142.18;100.00;-13812.19;5010164;28;20085;-74
2021/12/30 06:24:15;;;;;;;0.22;0.22;;;;;;;-142.18;100.00;-13812.19;4992454;28;20387;-74
2021/12/30 06:26:44;;;;;;;1.02;0.93;;;;;;;-142.18;100.00;-13812.19;5032309;27;20054;-73
2021/12/30 06:29:16;;;;;;;0.20;0.20;;;;;;;-142.18;100.00;-13812.19;5022381;28;20064;-74
2021/12/30 06:31:46;;;;;;;0.20;0.20;;;;;;;-142.18;100.00;-13812.19;4993148;28;20611;-73
2021/12/30 06:34:12;;;;;;;1.23;1.13;;;;;;;-142.18;100.00;-13812.19;5028697;28;20062;-74
2021/12/30 06:36:40;;;;;;;0.52;0.52;;;;;;;-142.18;100.00;-13812.19;5029147;28;20061;-73
2021/12/30 06:39:07;;;;;;;0.20;0.20;;;;;;;-142.18;100.00;-13812.19;5029377;28;20444;-74
2021/12/30 06:41:34;;;;;;;0.30;0.30;;;;;;;-142.18;100.00;-13812.19;5029735;28;20054;-73
2021/12/30 06:44:01;;;;;;;0.20;0.20;;;;;;;-142.18;100.00;-13812.19;5028335;28;20068;-74
2021/12/30 06:46:28;;;;;;;0.20;0.20;;;;;;;-142.18;100.00;-13812.19;5028099;27;20065;-74
2021/12/30 06:48:55;;;;;;;0.40;0.40;;;;;;;-142.18;100.00;-13812.19;5028238;28;20367;-73
2021/12/30 06:51:27;;;;;;;0.20;0.20;;;;;;;-142.18;100.00;-13812.19;5051820;27;20154;-73
2021/12/30 06:53:55;;;;;;;0.20;0.20;;;;;;;-142.18;100.00;-13812.19;5115938;27;20059;-73
2021/12/30 06:56:25;;;;;;;6.85;1.92;;;;;;;-142.18;100.00;-13812.19;5132111;27;20063;-74
2021/12/30 06:58:53;;;;;;;0.60;0.60;;;;;;;-142.18;100.00;-13812.19;5114017;27;20158;-74
2021/12/30 07:01:19;;;;;;;0.40;0.40;;;;;;;-142.18;100.00;-13812.19;5131931;27;20716;-74
2021/12/30 07:03:46;;;;;;;1.70;1.58;;;;;;;-142.18;100.00;-13812.19;5116046;27;20483;-73
2021/12/30 07:06:13;;;;;;;0.20;0.20;;;;;;;-142.18;100.00;-13812.19;5132536;27;20064;-74
2021/12/30 07:08:40;;;;;;;0.63;0.63;;;;;;;-142.18;100.00;-13812.19;5114806;27;20140;-74
2021/12/30 07:11:08;;;;;;;0.30;0.30;;;;;;;-142.18;100.00;-13812.19;5010841;27;20490;-64
2021/12/30 07:13:36;;;;;;;0.20;0.20;;;;;;;-142.18;100.00;-13812.19;5007832;28;20503;-64
2021/12/30 07:16:04;;;;;;;0.20;0.20;;;;;;;-142.18;100.00;-13812.19;5006998;28;20062;-64
2021/12/30 07:18:41;;;;;;;0.47;0.45;;;;;;;-142.18;100.00;-13812.19;5006968;28;20807;-64
2021/12/30 07:21:25;;;;;;;0.20;0.20;;;;;;;-142.18;100.00;-13812.19;5004917;28;20929;-64
2021/12/30 07:23:51;;;;;;;0.30;0.30;;;;;;;-142.18;100.00;-13812.19;5030106;27;20073;-65
2021/12/30 07:26:18;;;;;;;0.20;0.20;;;;;;;-142.18;100.00;-13812.19;5072352;27;20051;-64
2021/12/30 07:28:47;;;;;;;0.32;0.32;;;;;;;-142.18;100.00;-13812.19;5024857;28;20064;-64
2021/12/30 07:31:20;;;;;;;0.60;0.60;;;;;;;-142.18;100.00;-13812.19;5029555;28;20057;-64
2021/12/30 07:33:49;;;;;;;0.20;0.20;;;;;;;-142.18;100.00;-13812.19;5038573;27;20058;-64
2021/12/30 07:36:17;;;;;;;0.28;0.28;;;;;;;-142.18;100.00;-13812.19;5010211;28;21199;-66
2021/12/30 07:38:50;;;;;;;0.60;0.60;;;;;;;-142.18;100.00;-13812.19;5008888;28;20125;-65
2021/12/30 07:41:17;;;;;;;0.20;0.20;;;;;;;-142.18;100.00;-13812.19;4992136;28;20415;-63
2021/12/30 07:43:44;;;;;;;0.38;0.38;;;;;;;-142.18;100.00;-13812.19;5009613;28;20758;-64
2021/12/30 07:46:11;;;;;;;0.20;0.20;;;;;;;-142.18;100.00;-13812.19;5009260;28;20062;-63
2021/12/30 07:48:39;;;;;;;0.20;0.20;;;;;;;-142.18;100.00;-13812.19;5044907;27;20129;-66
2021/12/30 07:51:07;;;;;;;2.53;1.17;;;;;;;-142.18;100.00;-13812.19;5050536;28;20061;-66
2021/12/30 07:53:34;;;;;;;0.22;0.22;;;;;;;-142.18;100.00;-13812.19;5050056;28;20053;-66
2021/12/30 07:56:04;;;;;;;0.57;0.57;;;;;;;-142.18;100.00;-13812.19;5050246;28;20060;-66
2021/12/30 07:58:33;;;;;;;0.20;0.20;;;;;;;-142.18;100.00;-13812.19;5046353;27;20053;-66
2021/12/30 08:01:00;;;;;;;0.20;0.20;;;;;;;-142.18;100.00;-13812.19;5051052;27;20072;-66
2021/12/30 08:03:29;;;;;;;0.47;0.47;;;;;;;-142.18;100.00;-13812.19;5049215;28;20062;-65
2021/12/30 08:05:56;;;;;;;5.30;0.73;;;;;;;-142.18;100.00;-13812.19;5050293;27;20060;-66
2021/12/30 08:08:24;;;;;;;0.25;0.25;;;;;;;-142.18;100.00;-13812.19;5050312;28;20152;-66
2021/12/30 08:10:51;;;;;;;0.40;0.40;;;;;;;-142.18;100.00;-13812.19;5049047;28;20694;-66
2021/12/30 08:13:18;;;;;;;0.10;0.10;;;;;;;-142.18;100.00;-13812.19;5050091;28;20065;-66
2021/12/30 08:15:46;;;;;;;1.05;1.05;;;;;;;-142.18;100.00;-13812.19;5051546;27;20596;-66
2021/12/30 08:18:13;;;;;;;0.20;0.20;;;;;;;-142.18;100.00;-13812.19;5050402;28;20753;-66
2021/12/30 08:20:47;;;;;;;0.30;0.30;;;;;;;-142.18;100.00;-13812.19;5020160;28;20062;-66
2021/12/30 08:23:14;;;;;;;0.65;0.52;;;;;;;-142.18;100.00;-13812.19;5010025;28;20149;-66
2021/12/30 08:25:41;;;;;;;0.20;0.20;;;;;;;-142.18;100.00;-13812.19;5010946;28;20594;-65
2021/12/30 08:28:12;;;;;;;2.35;0.88;;;;;;;-142.18;100.00;-13812.19;4994237;28;20341;-65
2021/12/30 08:30:40;;;;;;;0.20;0.20;;;;;;;-142.18;100.00;-13812.19;5005110;28;20690;-65
2021/12/30 08:33:07;;;;;;;0.20;0.20;;;;;;;-142.18;100.00;-13812.19;5030151;27;20088;-64
2021/12/30 08:35:35;;;;;;;1.25;1.25;;;;;;;-142.18;100.00;-13812.19;5027900;28;20143;-65
2021/12/30 08:38:04;;;;;;;0.20;0.20;;;;;;;-142.18;100.00;-13812.19;5029074;28;20064;-66
2021/12/30 08:40:32;;;;;;;1.85;0.77;;;;;;;-142.18;100.00;-13812.19;5028954;28;20450;-66
2021/12/30 08:42:59;;;;;;;2.92;2.72;;;;;;;-142.18;100.00;-13812.19;5039834;27;20058;-65
2021/12/30 08:45:26;;;;;;;0.20;0.20;;;;;;;-142.18;100.00;-13812.19;5049468;28;20465;-65
2021/12/30 08:47:53;;;;;;;0.20;0.20;;;;;;;-142.18;100.00;-13812.19;5047150;27;20071;-65
2021/12/30 08:50:20;;;;;;;0.22;0.22;;;;;;;-142.18;100.00;-13812.19;5069431;27;20131;-65
2021/12/30 08:52:48;;;;;;;1.00;0.95;;;;;;;-142.18;100.00;-13812.19;5132823;27;20052;-65
2021/12/30 08:55:17;;;;;;;0.20;0.20;;;;;;;-142.18;100.00;-13812.19;5131715;27;20056;-65
2021/12/30 08:57:45;;;;;;;0.43;0.43;;;;;;;-142.18;100.00;-13812.19;5046743;27;20187;-65
2021/12/30 09:00:29;;;;;;;0.20;0.20;;;;;;;-142.18;100.00;-13812.19;5006877;28;20058;-65
2021/12/30 09:03:00;;;;;;;0.20;0.20;;;;;;;-142.18;100.00;-13812.19;4991210;28;20139;-65
2021/12/30 09:05:28;;;;;;;0.40;0.40;;;;;;;-142.18;100.00;-13812.19;5008559;28;20456;-65
2021/12/30 09:07:55;;;;;;;0.20;0.20;;;;;;;-142.18;100.00;-13812.19;5008750;28;20058;-65
2021/12/30 09:10:24;;;;;;;1.00;0.30;;;;;;;-142.18;100.00;-13812.19;5024074;27;20216;-65
2021/12/30 09:12:52;;;;;;;0.20;0.20;;;;;;;-142.18;100.00;-13812.19;5047815;27;20486;-65
2021/12/30 09:15:24;;;;;;;0.20;0.20;;;;;;;-142.18;100.00;-13812.19;5044517;27;20062;-65
2021/12/30 09:17:53;;;;;;;0.50;0.50;;;;;;;-142.18;100.00;-13812.19;5010715;28;20065;-65
2021/12/30 09:20:22;;;;;;;0.20;0.20;;;;;;;-142.18;100.00;-13812.19;5027436;28;20057;-66
2021/12/30 09:22:54;;;;;;;0.20;0.20;;;;;;;-142.18;100.00;-13812.19;5010533;28;20053;-66
2021/12/30 09:25:25;;;;;;;1.33;1.33;;;;;;;-142.18;100.00;-13812.19;5010275;28;20054;-66
2021/12/30 09:27:57;;;;;;;0.20;0.20;;;;;;;-142.18;100.00;-13812.19;5027647;28;20058;-64
2021/12/30 09:30:27;;;;;;;0.20;0.20;;;;;;;-142.18;100.00;-13812.19;5071031;27;20134;-66
2021/12/30 09:33:01;;;;;;;0.20;0.20;;;;;;;-142.18;100.00;-13812.19;5094852;27;20501;-65
2021/12/30 09:35:29;;;;;;;0.20;0.20;;;;;;;-142.18;100.00;-13812.19;5113151;27;20055;-65
2021/12/30 09:37:58;;;;;;;0.20;0.20;;;;;;;-142.18;100.00;-13812.19;5128862;27;20064;-65
2021/12/30 09:40:31;;;;;;;0.77;0.47;;;;;;;-142.18;100.00;-13812.19;5030326;28;20057;-65
2021/12/30 09:43:09;;;;;;;0.95;0.95;;;;;;;-142.18;100.00;-13812.19;5034521;28;20849;-66
2021/12/30 09:45:44;;;;;;;0.20;0.20;;;;;;;-142.18;100.00;-13812.19;5027442;28;20057;-65
2021/12/30 09:48:19;;;;;;;0.20;0.20;;;;;;;-142.18;100.00;-13812.19;5027128;28;20111;-65
2021/12/30 09:50:52;;;;;;;0.20;0.20;;;;;;;-142.18;100.00;-13812.19;5024863;27;20601;-65
2021/12/30 09:53:30;;;;;;;1.10;0.45;;;;;;;-142.18;100.00;-13812.19;5025431;28;20074;-65
2021/12/30 09:55:59;;;;;;;0.20;0.20;;;;;;;-142.18;100.00;-13812.19;5026212;28;20062;-65
2021/12/30 09:58:28;;;;;;;0.20;0.20;;;;;;;-142.18;100.00;-13812.19;4989823;28;20060;-66
2021/12/30 10:00:59;;;;;;;0.20;0.20;;;;;;;-142.18;100.00;-13812.19;5005663;28;20145;-77
2021/12/30 10:03:37;;;;;;;0.20;0.20;;;;;;;-142.18;100.00;-13812.19;4984692;28;20527;-66
2021/12/30 10:06:12;;;;;;;0.30;0.30;;;;;;;-142.18;100.00;-13812.19;5033199;27;20808;-66
2021/12/30 10:08:51;;;;;;;;;;;;;;;-142.18;100.00;-13812.19;5089662;27;20512;-66
2021/12/30 10:11:19;;;;;;;0.20;0.20;;;;;;;-142.18;100.00;-13812.19;5112475;27;20479;-66
2021/12/30 10:13:57;;;;;;;0.30;0.30;;;;;;;-142.18;100.00;-13812.19;5130584;27;20147;-66
2021/12/30 10:16:29;;;;;;;;;;;;;;;-142.18;100.00;-13812.19;5130458;27;20067;-65
2021/12/30 10:19:05;;;;;;;0.20;0.20;;;;;;;-142.18;100.00;-13812.19;5129860;27;19933;-63
2021/12/30 10:21:42;;;;;;;0.20;0.20;;;;;;;-142.18;100.00;-13812.19;5027504;28;20904;-65
2021/12/30 10:24:12;;;;;;;0.20;0.20;;;;;;;-142.18;100.00;-13812.19;5028455;28;20185;-66
2021/12/30 10:27:01;;;;;;;0.20;0.20;;;;;;;-142.18;100.00;-13812.19;5045003;28;20067;-66
2021/12/30 10:29:44;;;;;;;0.20;0.20;;;;;;;-142.18;100.00;-13812.19;5014186;28;20486;-65
2021/12/30 10:32:25;;;;;;;0.40;0.40;;;;;;;-142.18;100.00;-13812.19;5029395;27;20712;-65
2021/12/30 10:35:14;;;;;;;0.10;0.10;;;;;;;-142.18;100.00;-13812.19;5048745;27;20063;-66
2021/12/30 10:37:46;;;;;;;0.20;0.20;;;;;;;-142.18;100.00;-13812.19;5006356;28;20073;-66
2021/12/30 10:40:31;;;;;;;0.50;0.50;;;;;;;-142.18;100.00;-13812.19;4990618;28;20061;-66
2021/12/30 10:43:45;;;;;;;0.20;0.20;;;;;;;-142.18;100.00;-13812.19;5090876;27;20120;-65
2021/12/30 10:46:27;;;;;;;0.30;0.30;;;;;;;-142.18;100.00;-13812.19;5123312;27;20083;-65
2021/12/30 10:49:28;;;;;;;0.20;0.20;;;;;;;-142.18;100.00;-13812.19;5047750;27;20063;-66
2021/12/30 10:51:57;;;;;;;0.20;0.20;;;;;;;-142.18;100.00;-13812.19;5059619;27;20055;-65
2021/12/30 10:54:37;;;;;;;0.20;0.20;;;;;;;-142.18;100.00;-13812.19;5062650;27;20109;-66
2021/12/30 10:57:10;;;;;;;0.20;0.20;;;;;;;-142.18;100.00;-13812.19;5081548;27;20483;-66
2021/12/30 10:59:49;;;;;;;0.20;0.20;;;;;;;-142.18;100.00;-13812.19;5062101;27;20058;-66
2021/12/30 11:02:24;;;;;;;0.10;0.10;;;;;;;-142.18;100.00;-13812.19;5056112;27;20073;-66
2021/12/30 11:04:54;;;;;;;0.20;0.20;;;;;;;-142.18;100.00;-13812.19;5081093;27;20060;-65
2021/12/30 11:07:24;;;;;;;0.20;0.20;;;;;;;-142.18;100.00;-13812.19;5061062;27;20054;-65
2021/12/30 11:09:58;;;;;;;0.20;0.20;;;;;;;-142.18;100.00;-13812.19;5053641;27;20055;-65
2021/12/30 11:12:34;;;;;;;0.20;0.20;;;;;;;-142.18;100.00;-13812.19;5077311;27;20144;-65